Time;durP1;ratioP1;P1;durP2;ratioP2;P2;SDS_P1;SDS_P2;PMS_P1;PMS_P2;Temp;Humidity;BMP_temperature;BMP_pressure;BME280_temperature;BME280_humidity;BME280_pressure;Samples;Min_cycle;Max_cycle;Signal;HPM_P1;HPM_P2
2024/01/23 00:01:24;;;;;;;10.20;9.90;;;6.50;99.90;;;;;;6230390;23;20195;-86
2024/01/23 00:03:51;;;;;;;10.10;9.80;;;6.50;99.90;;;;;;6230610;22;20209;-87
2024/01/23 00:06:19;;;;;;;10.07;9.77;;;6.50;99.90;;;;;;6230406;23;20199;-86
2024/01/23 00:08:48;;;;;;;10.40;10.10;;;6.50;99.90;;;;;;6230183;23;20203;-86
2024/01/23 00:11:15;;;;;;;10.20;9.90;;;6.50;99.90;;;;;;6231468;23;20199;-86
2024/01/23 00:13:45;;;;;;;10.10;9.80;;;6.50;99.90;;;;;;6239396;22;20199;-86
2024/01/23 00:16:12;;;;;;;10.10;9.80;;;6.50;99.90;;;;;;6230636;23;20201;-86
2024/01/23 00:18:40;;;;;;;10.10;9.80;;;6.50;99.90;;;;;;6230742;23;20207;-86
2024/01/23 00:21:07;;;;;;;10.30;10.00;;;6.50;99.90;;;;;;6230313;23;20259;-86
2024/01/23 00:23:35;;;;;;;10.20;9.90;;;6.50;99.90;;;;;;6230193;22;20745;-86
2024/01/23 00:26:04;;;;;;;10.27;9.97;;;6.40;99.90;;;;;;6230369;23;20199;-86
2024/01/23 00:28:31;;;;;;;10.10;9.80;;;6.40;99.90;;;;;;6230330;23;20202;-86
2024/01/23 00:30:59;;;;;;;10.10;9.80;;;6.50;99.90;;;;;;6231855;23;20215;-86
2024/01/23 00:33:26;;;;;;;10.00;9.70;;;6.40;99.90;;;;;;6230412;22;20202;-86
2024/01/23 00:35:54;;;;;;;9.83;9.53;;;6.50;99.90;;;;;;6230623;23;20253;-86
2024/01/23 00:38:21;;;;;;;10.50;10.20;;;6.50;99.90;;;;;;6230691;23;20210;-86
2024/01/23 00:40:48;;;;;;;10.57;10.27;;;6.50;99.90;;;;;;6230806;23;20211;-86
2024/01/23 00:43:18;;;;;;;10.43;10.13;;;6.50;99.90;;;;;;6240920;22;20226;-86
2024/01/23 00:45:45;;;;;;;10.50;10.20;;;6.60;99.90;;;;;;6248056;22;20191;-86
2024/01/23 00:48:13;;;;;;;10.80;10.50;;;6.60;99.90;;;;;;6246542;23;20191;-86
2024/01/23 00:50:40;;;;;;;10.70;10.40;;;6.60;99.90;;;;;;6241908;23;20206;-86
2024/01/23 00:53:08;;;;;;;10.57;10.27;;;6.60;99.90;;;;;;6231826;22;20226;-87
2024/01/23 00:55:35;;;;;;;10.73;10.43;;;6.60;99.90;;;;;;6233870;23;20179;-86
2024/01/23 00:58:13;;;;;;;10.60;10.30;;;6.60;99.90;;;;;;6233049;23;20233;-86
2024/01/23 01:00:44;;;;;;;10.47;10.17;;;6.70;99.90;;;;;;6204582;23;20257;-86
2024/01/23 01:03:11;;;;;;;10.60;10.30;;;6.70;99.90;;;;;;6231939;22;20191;-86
2024/01/23 01:05:39;;;;;;;10.20;9.90;;;6.70;99.90;;;;;;6229903;23;20207;-87
2024/01/23 01:08:09;;;;;;;10.60;10.30;;;6.70;99.90;;;;;;6230545;23;20203;-86
2024/01/23 01:10:37;;;;;;;10.43;10.13;;;6.70;99.90;;;;;;6230942;23;20280;-86
2024/01/23 01:13:04;;;;;;;10.37;10.07;;;6.70;99.90;;;;;;6230845;22;20199;-86
2024/01/23 01:15:32;;;;;;;10.30;10.00;;;6.70;99.90;;;;;;6231120;23;20258;-86
2024/01/23 01:18:01;;;;;;;10.17;9.87;;;6.70;99.90;;;;;;6230453;23;20211;-86
2024/01/23 01:20:28;;;;;;;10.30;10.00;;;6.80;99.90;;;;;;6232034;23;20217;-87
2024/01/23 01:22:56;;;;;;;10.50;10.20;;;6.80;99.90;;;;;;6230533;23;20222;-87
2024/01/23 01:25:25;;;;;;;10.20;9.90;;;6.90;99.90;;;;;;6229764;23;20207;-87
2024/01/23 01:27:52;;;;;;;10.50;10.20;;;6.90;99.90;;;;;;6229809;23;20202;-88
2024/01/23 01:30:21;;;;;;;10.77;10.47;;;6.90;99.90;;;;;;6229630;23;20190;-86
2024/01/23 01:32:48;;;;;;;10.53;10.23;;;6.90;99.90;;;;;;6229869;23;20202;-87
2024/01/23 01:35:17;;;;;;;10.50;10.20;;;6.90;99.90;;;;;;6228687;22;20198;-87
2024/01/23 01:37:45;;;;;;;10.70;10.40;;;6.90;99.90;;;;;;6229375;23;20202;-87
2024/01/23 01:40:14;;;;;;;10.50;10.20;;;6.90;99.90;;;;;;6228426;23;21041;-87
2024/01/23 01:42:42;;;;;;;10.47;10.17;;;6.90;99.90;;;;;;6229368;23;20253;-87
2024/01/23 01:45:11;;;;;;;10.60;10.30;;;6.90;99.90;;;;;;6229521;22;20211;-87
2024/01/23 01:47:41;;;;;;;10.40;10.10;;;6.90;99.90;;;;;;6240680;23;20218;-88
2024/01/23 01:50:10;;;;;;;10.53;10.23;;;6.90;99.90;;;;;;6234892;23;20199;-87
2024/01/23 01:52:39;;;;;;;10.50;10.20;;;6.90;99.90;;;;;;6230036;23;20226;-87
2024/01/23 01:55:08;;;;;;;10.50;10.20;;;6.90;99.90;;;;;;6230296;22;20223;-88
2024/01/23 01:57:39;;;;;;;10.67;10.37;;;6.90;99.90;;;;;;6229412;23;20203;-87
2024/01/23 02:00:10;;;;;;;11.03;10.73;;;6.80;99.90;;;;;;6229063;23;20218;-87
2024/01/23 02:02:40;;;;;;;11.23;10.90;;;6.80;99.90;;;;;;6229635;23;20187;-87
2024/01/23 02:05:08;;;;;;;11.10;10.80;;;6.80;99.90;;;;;;6228347;22;20198;-87
2024/01/23 02:07:35;;;;;;;11.30;10.90;;;6.80;99.90;;;;;;6228325;23;20211;-87
2024/01/23 02:10:05;;;;;;;11.50;11.10;;;6.80;99.90;;;;;;6228927;23;20198;-87
2024/01/23 02:12:32;;;;;;;11.67;11.27;;;6.80;99.90;;;;;;6228531;23;20207;-87
2024/01/23 02:14:59;;;;;;;11.60;11.20;;;6.80;99.90;;;;;;6227841;22;20207;-87
2024/01/23 02:17:27;;;;;;;10.90;10.60;;;6.70;99.90;;;;;;6240161;22;20195;-88
2024/01/23 02:19:54;;;;;;;10.50;10.20;;;6.70;99.90;;;;;;6229822;23;20199;-87
2024/01/23 02:22:22;;;;;;;10.53;10.23;;;6.70;99.90;;;;;;6228975;23;20254;-87
2024/01/23 02:24:51;;;;;;;10.87;10.57;;;6.70;99.90;;;;;;6228709;22;20199;-87
2024/01/23 02:27:18;;;;;;;11.10;10.80;;;6.70;99.90;;;;;;6230027;23;20191;-87
2024/01/23 02:29:46;;;;;;;11.30;10.90;;;6.70;99.90;;;;;;6229808;23;20203;-87
2024/01/23 02:32:13;;;;;;;11.20;10.80;;;6.70;99.90;;;;;;6230139;23;20203;-87
2024/01/23 02:34:41;;;;;;;10.93;10.63;;;6.70;99.90;;;;;;6229922;23;20199;-86
2024/01/23 02:37:08;;;;;;;10.97;10.67;;;6.70;99.90;;;;;;6231514;23;20284;-87
2024/01/23 02:39:36;;;;;;;10.93;10.63;;;6.70;99.90;;;;;;6237044;23;20207;-87
2024/01/23 02:42:09;;;;;;;11.10;10.80;;;6.70;99.90;;;;;;6239947;23;20191;-87
2024/01/23 02:44:37;;;;;;;10.60;10.30;;;6.70;99.90;;;;;;6232827;22;20207;-82
2024/01/23 02:47:05;;;;;;;10.60;10.30;;;6.70;99.90;;;;;;6233174;23;20195;-82
2024/01/23 02:49:33;;;;;;;10.93;10.63;;;6.70;99.90;;;;;;6232512;23;20203;-83
2024/01/23 02:52:09;;;;;;;10.80;10.50;;;6.70;99.90;;;;;;6233505;23;20286;-83
2024/01/23 02:54:37;;;;;;;10.50;10.20;;;6.70;99.90;;;;;;6233788;22;20198;-80
2024/01/23 02:57:06;;;;;;;10.47;10.17;;;6.70;99.90;;;;;;6232324;23;20206;-84
2024/01/23 02:59:33;;;;;;;10.70;10.40;;;6.70;99.90;;;;;;6232040;23;20287;-81
2024/01/23 03:02:00;;;;;;;11.00;10.70;;;6.60;99.90;;;;;;6232101;23;20199;-80
2024/01/23 03:04:28;;;;;;;10.80;10.50;;;6.60;99.90;;;;;;6232089;22;20262;-81
2024/01/23 03:06:55;;;;;;;10.80;10.50;;;6.60;99.90;;;;;;6232452;23;20270;-81
2024/01/23 03:09:23;;;;;;;10.77;10.47;;;6.60;99.90;;;;;;6232574;23;20197;-80
2024/01/23 03:11:50;;;;;;;10.90;10.60;;;6.60;99.90;;;;;;6232239;23;20254;-81
2024/01/23 03:14:19;;;;;;;10.50;10.20;;;6.50;99.90;;;;;;6231666;22;21092;-80
2024/01/23 03:16:46;;;;;;;10.80;10.50;;;6.50;99.90;;;;;;6232641;23;20187;-80
2024/01/23 03:19:15;;;;;;;10.70;10.40;;;6.50;99.90;;;;;;6241795;23;20179;-83
2024/01/23 03:21:43;;;;;;;10.63;10.33;;;6.50;99.90;;;;;;6239332;23;20242;-82
2024/01/23 03:24:10;;;;;;;11.00;10.70;;;6.40;99.90;;;;;;6236955;22;20232;-82
2024/01/23 03:26:38;;;;;;;10.67;10.37;;;6.50;99.90;;;;;;6236004;23;20194;-83
2024/01/23 03:29:09;;;;;;;10.63;10.33;;;6.40;99.90;;;;;;6235025;23;20249;-80
2024/01/23 03:31:39;;;;;;;10.67;10.37;;;6.40;99.90;;;;;;6234799;23;20203;-83
2024/01/23 03:34:07;;;;;;;10.70;10.40;;;6.40;99.90;;;;;;6235848;22;20203;-82
2024/01/23 03:36:35;;;;;;;10.70;10.40;;;6.40;99.90;;;;;;6233533;23;20229;-82
2024/01/23 03:39:02;;;;;;;10.67;10.37;;;6.40;99.90;;;;;;6232990;23;20202;-83
2024/01/23 03:41:29;;;;;;;10.77;10.47;;;6.40;99.90;;;;;;6233263;23;20199;-83
2024/01/23 03:43:59;;;;;;;10.93;10.63;;;6.40;99.90;;;;;;6232508;22;20215;-83
2024/01/23 03:46:26;;;;;;;10.90;10.60;;;6.40;99.90;;;;;;6233314;23;20202;-82
2024/01/23 03:48:55;;;;;;;10.80;10.50;;;6.30;99.90;;;;;;6232699;23;20199;-83
2024/01/23 03:51:22;;;;;;;10.80;10.50;;;6.30;99.90;;;;;;6232357;23;20202;-83
2024/01/23 03:53:50;;;;;;;11.00;10.70;;;6.30;99.90;;;;;;6232357;22;20203;-83
2024/01/23 03:56:18;;;;;;;10.60;10.30;;;6.20;99.90;;;;;;6232098;23;20191;-83
2024/01/23 03:58:46;;;;;;;10.80;10.50;;;6.20;99.90;;;;;;6239982;22;20259;-83
2024/01/23 04:01:13;;;;;;;10.60;10.30;;;6.20;99.90;;;;;;6236747;23;20253;-83
2024/01/23 04:03:40;;;;;;;10.70;10.40;;;6.20;99.90;;;;;;6237887;22;20257;-83
2024/01/23 04:06:09;;;;;;;10.70;10.40;;;6.20;99.90;;;;;;6236693;23;20215;-83
2024/01/23 04:08:36;;;;;;;10.87;10.57;;;6.20;99.90;;;;;;6234044;23;20246;-83
2024/01/23 04:11:04;;;;;;;10.57;10.27;;;6.20;99.90;;;;;;6232014;23;20202;-83
2024/01/23 04:13:32;;;;;;;10.73;10.43;;;6.20;99.90;;;;;;6231389;22;20259;-83
2024/01/23 04:15:59;;;;;;;10.80;10.50;;;6.10;99.90;;;;;;6231722;23;20203;-83
2024/01/23 04:18:27;;;;;;;10.90;10.60;;;6.10;99.90;;;;;;6231977;23;20213;-80
2024/01/23 04:20:54;;;;;;;11.00;10.70;;;6.10;99.90;;;;;;6231644;23;20195;-80
2024/01/23 04:23:23;;;;;;;10.70;10.40;;;6.10;99.90;;;;;;6232103;22;20207;-80
2024/01/23 04:25:50;;;;;;;10.90;10.60;;;6.10;99.90;;;;;;6243966;23;20202;-82
2024/01/23 04:28:17;;;;;;;10.80;10.50;;;6.10;99.90;;;;;;6245811;23;20206;-81
2024/01/23 04:30:45;;;;;;;11.07;10.77;;;6.10;99.90;;;;;;6247630;23;20183;-81
2024/01/23 04:33:12;;;;;;;10.53;10.23;;;6.10;99.90;;;;;;6248470;23;20262;-81
2024/01/23 04:35:40;;;;;;;10.80;10.50;;;6.10;99.90;;;;;;6247463;23;20190;-80
2024/01/23 04:38:14;;;;;;;10.60;10.30;;;6.10;99.90;;;;;;6247302;23;20258;-82
2024/01/23 04:40:42;;;;;;;10.90;10.60;;;6.10;99.90;;;;;;6243193;23;20206;-81
2024/01/23 04:43:10;;;;;;;11.00;10.70;;;6.00;99.90;;;;;;6240315;23;20195;-82
2024/01/23 04:45:39;;;;;;;10.93;10.63;;;6.00;99.90;;;;;;6239881;22;20207;-81
2024/01/23 04:48:07;;;;;;;11.10;10.80;;;6.00;99.90;;;;;;6239452;23;20199;-82
2024/01/23 04:50:34;;;;;;;11.03;10.73;;;6.10;99.90;;;;;;6239549;23;20199;-81
2024/01/23 04:53:02;;;;;;;11.10;10.80;;;6.10;99.90;;;;;;6241672;23;20205;-82
2024/01/23 04:55:29;;;;;;;10.50;10.20;;;6.10;99.90;;;;;;6246976;22;20198;-80
2024/01/23 04:57:58;;;;;;;10.70;10.40;;;6.10;99.90;;;;;;6247667;22;20198;-81
2024/01/23 05:00:26;;;;;;;10.90;10.60;;;6.10;99.90;;;;;;6248264;23;20197;-81
2024/01/23 05:02:53;;;;;;;11.00;10.70;;;6.10;99.90;;;;;;6245041;23;20222;-81
2024/01/23 05:05:20;;;;;;;10.67;10.37;;;6.20;99.90;;;;;;6237595;22;20222;-82
2024/01/23 05:07:48;;;;;;;10.67;10.37;;;6.20;99.90;;;;;;6238129;23;20198;-82
2024/01/23 05:10:15;;;;;;;10.33;10.03;;;6.20;99.90;;;;;;6237456;23;20249;-82
2024/01/23 05:12:43;;;;;;;10.23;9.93;;;6.20;99.90;;;;;;6236505;23;20203;-82
2024/01/23 05:15:12;;;;;;;10.23;9.93;;;6.20;99.90;;;;;;6236265;22;20199;-82
2024/01/23 05:17:39;;;;;;;10.70;10.40;;;6.20;99.90;;;;;;6236353;23;20269;-82
2024/01/23 05:20:08;;;;;;;10.80;10.50;;;6.20;99.90;;;;;;6234911;23;20282;-81
2024/01/23 05:22:36;;;;;;;10.70;10.40;;;6.20;99.90;;;;;;6235605;23;20191;-81
2024/01/23 05:25:04;;;;;;;10.70;10.40;;;6.20;99.90;;;;;;6235342;22;20245;-81
2024/01/23 05:27:31;;;;;;;10.37;10.07;;;6.10;99.90;;;;;;6235348;23;20202;-81
2024/01/23 05:29:58;;;;;;;10.20;9.90;;;6.10;99.90;;;;;;6235000;23;20725;-82
2024/01/23 05:32:27;;;;;;;10.33;10.03;;;6.10;99.90;;;;;;6234695;23;20262;-82
2024/01/23 05:34:55;;;;;;;10.33;10.03;;;6.00;99.90;;;;;;6234157;22;20206;-81
2024/01/23 05:37:24;;;;;;;10.37;10.07;;;6.00;99.90;;;;;;6234556;23;20194;-81
2024/01/23 05:39:51;;;;;;;10.20;9.90;;;5.90;99.90;;;;;;6233547;23;21168;-81
2024/01/23 05:42:18;;;;;;;10.60;10.30;;;5.90;99.90;;;;;;6231435;23;20209;-82
2024/01/23 05:44:46;;;;;;;10.40;10.10;;;5.90;99.90;;;;;;6231987;22;20246;-81
2024/01/23 05:47:13;;;;;;;10.77;10.47;;;5.80;99.90;;;;;;6231732;23;20202;-81
2024/01/23 05:49:42;;;;;;;10.10;9.80;;;5.80;99.90;;;;;;6231688;23;20195;-82
2024/01/23 05:52:10;;;;;;;10.10;9.80;;;5.80;99.90;;;;;;6234153;23;20275;-81
2024/01/23 05:54:41;;;;;;;9.87;9.57;;;5.70;99.90;;;;;;6231149;22;20202;-81
2024/01/23 05:57:11;;;;;;;10.00;9.70;;;5.70;99.90;;;;;;6230940;23;20191;-81
2024/01/23 05:59:38;;;;;;;9.97;9.67;;;5.70;99.90;;;;;;6232322;23;20186;-81
2024/01/23 06:02:06;;;;;;;9.70;9.40;;;5.70;99.90;;;;;;6233011;23;20210;-81
2024/01/23 06:04:33;;;;;;;10.00;9.70;;;5.60;99.90;;;;;;6233198;22;20195;-81
2024/01/23 06:07:06;;;;;;;10.10;9.80;;;5.60;99.90;;;;;;6235124;23;20195;-81
2024/01/23 06:09:33;;;;;;;10.50;10.20;;;5.60;99.90;;;;;;6233355;23;20198;-81
2024/01/23 06:12:00;;;;;;;10.47;10.17;;;5.50;99.90;;;;;;6233093;23;20199;-81
2024/01/23 06:14:28;;;;;;;10.30;10.00;;;5.50;99.90;;;;;;6231892;22;20191;-81
2024/01/23 06:16:56;;;;;;;10.20;9.90;;;5.50;99.90;;;;;;6231772;23;20191;-80
2024/01/23 06:19:24;;;;;;;9.70;9.40;;;5.50;99.90;;;;;;6232344;23;20222;-81
2024/01/23 06:21:51;;;;;;;10.20;9.90;;;5.50;99.90;;;;;;6232400;23;20230;-81
2024/01/23 06:24:20;;;;;;;9.90;9.60;;;5.40;99.90;;;;;;6231560;22;20289;-81
2024/01/23 06:26:48;;;;;;;10.07;9.77;;;5.40;99.90;;;;;;6231735;23;20203;-81
2024/01/23 06:29:15;;;;;;;10.03;9.73;;;5.40;99.90;;;;;;6232739;23;20203;-81
2024/01/23 06:31:51;;;;;;;9.67;9.37;;;5.40;99.90;;;;;;6232378;23;20713;-81
2024/01/23 06:34:20;;;;;;;10.00;9.70;;;5.40;99.90;;;;;;6232516;22;20203;-81
2024/01/23 06:36:48;;;;;;;10.20;9.90;;;5.40;99.90;;;;;;6235355;23;20265;-81
2024/01/23 06:39:15;;;;;;;10.20;9.90;;;5.30;99.90;;;;;;6240002;23;20205;-80
2024/01/23 06:41:45;;;;;;;10.13;9.83;;;5.20;99.90;;;;;;6245022;23;20187;-81
2024/01/23 06:44:12;;;;;;;10.50;10.20;;;5.20;99.90;;;;;;6242486;22;20211;-81
2024/01/23 06:46:40;;;;;;;10.20;9.90;;;5.20;99.90;;;;;;6245863;22;20187;-79
2024/01/23 06:49:10;;;;;;;10.27;9.97;;;5.20;99.90;;;;;;6249911;22;20258;-80
2024/01/23 06:51:38;;;;;;;10.23;9.93;;;5.20;99.90;;;;;;6249816;22;20233;-81
2024/01/23 06:54:07;;;;;;;10.00;9.70;;;5.20;99.90;;;;;;6249675;22;20284;-81
2024/01/23 06:56:37;;;;;;;10.30;10.00;;;5.20;99.90;;;;;;6250068;22;20171;-79
2024/01/23 06:59:06;;;;;;;10.37;10.07;;;5.20;99.90;;;;;;6249932;22;20185;-81
2024/01/23 07:01:34;;;;;;;10.63;10.33;;;5.20;99.90;;;;;;6248364;22;20255;-82
2024/01/23 07:04:02;;;;;;;10.50;10.20;;;5.30;99.90;;;;;;6249663;22;20186;-81
2024/01/23 07:06:30;;;;;;;10.80;10.50;;;5.30;99.90;;;;;;6248946;22;20186;-82
2024/01/23 07:09:04;;;;;;;10.60;10.30;;;5.30;99.90;;;;;;6248807;22;20183;-82
2024/01/23 07:11:31;;;;;;;10.30;10.00;;;5.30;99.90;;;;;;6245289;23;20254;-82
2024/01/23 07:14:01;;;;;;;10.43;10.13;;;5.20;99.90;;;;;;6246555;22;20257;-81
2024/01/23 07:16:30;;;;;;;10.27;9.97;;;5.20;99.90;;;;;;6249699;22;20203;-81
2024/01/23 07:18:58;;;;;;;10.60;10.30;;;5.20;99.90;;;;;;6240049;23;20183;-81
2024/01/23 07:21:29;;;;;;;10.07;9.77;;;5.10;99.90;;;;;;6249822;22;20230;-81
2024/01/23 07:23:56;;;;;;;10.30;10.00;;;5.10;99.90;;;;;;6249661;22;20202;-81
2024/01/23 07:26:26;;;;;;;10.20;9.90;;;5.20;99.90;;;;;;6248803;22;20282;-82
2024/01/23 07:28:54;;;;;;;10.30;10.00;;;5.20;99.90;;;;;;6245916;22;20197;-82
2024/01/23 07:31:22;;;;;;;10.10;9.80;;;5.20;99.90;;;;;;6233210;23;20222;-81
2024/01/23 07:33:51;;;;;;;10.30;10.00;;;5.20;99.90;;;;;;6234269;22;20682;-82
2024/01/23 07:36:21;;;;;;;10.20;9.90;;;5.30;99.90;;;;;;6237709;23;20254;-83
2024/01/23 07:38:48;;;;;;;10.50;10.20;;;5.30;99.90;;;;;;6246720;22;20254;-83
2024/01/23 07:41:16;;;;;;;10.33;10.03;;;5.40;99.90;;;;;;6246676;23;20201;-82
2024/01/23 07:43:44;;;;;;;10.73;10.43;;;5.40;99.90;;;;;;6245183;22;20205;-80
2024/01/23 07:46:12;;;;;;;10.50;10.20;;;5.50;99.90;;;;;;6245398;23;20270;-80
2024/01/23 07:48:40;;;;;;;10.13;9.83;;;5.50;99.90;;;;;;6244894;23;20188;-81
2024/01/23 07:51:17;;;;;;;10.50;10.20;;;5.60;99.90;;;;;;6237351;23;20230;-81
2024/01/23 07:53:45;;;;;;;10.20;9.90;;;5.60;99.90;;;;;;6229866;22;20218;-82
2024/01/23 07:56:14;;;;;;;10.10;9.80;;;5.60;99.90;;;;;;6232742;23;20195;-81
2024/01/23 07:58:40;;;;;;;10.40;10.10;;;5.60;99.90;;;;;;6232454;23;20201;-81
2024/01/23 08:01:11;;;;;;;10.33;10.03;;;5.70;99.90;;;;;;6230088;23;20191;-82
2024/01/23 08:03:39;;;;;;;10.13;9.83;;;5.80;99.90;;;;;;6230120;22;20206;-81
2024/01/23 08:06:07;;;;;;;10.23;9.93;;;5.80;99.90;;;;;;6229764;23;20191;-81
2024/01/23 08:08:36;;;;;;;10.40;10.10;;;5.90;99.90;;;;;;6229655;23;20206;-82
2024/01/23 08:11:03;;;;;;;10.40;10.10;;;5.90;99.90;;;;;;6230176;23;20278;-81
2024/01/23 08:13:30;;;;;;;10.37;10.07;;;6.00;99.90;;;;;;6230653;22;20207;-81
2024/01/23 08:15:58;;;;;;;10.40;10.10;;;6.10;99.90;;;;;;6230263;23;20207;-81
2024/01/23 08:18:28;;;;;;;10.33;10.03;;;6.10;99.90;;;;;;6230456;23;20190;-81
2024/01/23 08:20:55;;;;;;;10.60;10.30;;;6.10;99.90;;;;;;6231241;23;20206;-81
2024/01/23 08:23:25;;;;;;;10.50;10.20;;;6.10;99.90;;;;;;6230396;22;20257;-81
2024/01/23 08:25:52;;;;;;;10.60;10.30;;;6.10;99.90;;;;;;6232289;23;20229;-83
2024/01/23 08:28:20;;;;;;;10.50;10.20;;;6.20;99.90;;;;;;6230533;23;20202;-81
2024/01/23 08:30:48;;;;;;;10.33;10.03;;;6.20;99.90;;;;;;6235429;23;20245;-81
2024/01/23 08:33:18;;;;;;;10.40;10.10;;;6.20;99.90;;;;;;6235013;23;20195;-81
2024/01/23 08:35:45;;;;;;;10.17;9.87;;;6.20;99.90;;;;;;6231240;22;20226;-81
2024/01/23 08:38:14;;;;;;;10.60;10.30;;;6.20;99.90;;;;;;6233514;23;20218;-82
2024/01/23 08:40:45;;;;;;;10.40;10.10;;;6.20;99.90;;;;;;6230752;23;20213;-84
2024/01/23 08:43:15;;;;;;;10.50;10.20;;;6.20;99.90;;;;;;6231989;23;20187;-82
2024/01/23 08:45:42;;;;;;;10.30;10.00;;;6.30;99.90;;;;;;6227792;22;20211;-86
2024/01/23 08:48:10;;;;;;;10.63;10.33;;;6.30;99.90;;;;;;6229557;23;20234;-85
2024/01/23 08:50:37;;;;;;;10.30;10.00;;;6.40;99.90;;;;;;6229687;23;20191;-86
2024/01/23 08:53:05;;;;;;;10.20;9.90;;;6.40;99.90;;;;;;6230594;23;20199;-86
2024/01/23 08:55:32;;;;;;;10.30;10.00;;;6.40;99.90;;;;;;6229920;22;20199;-86
2024/01/23 08:58:01;;;;;;;10.33;10.03;;;6.40;99.90;;;;;;6230857;23;20286;-86
2024/01/23 09:00:28;;;;;;;10.23;9.93;;;6.50;99.90;;;;;;6229194;23;20233;-86
2024/01/23 09:02:55;;;;;;;10.27;9.97;;;6.60;99.90;;;;;;6229637;23;20207;-86
2024/01/23 09:05:22;;;;;;;10.37;10.07;;;6.70;99.90;;;;;;6229425;22;20486;-86
2024/01/23 09:07:50;;;;;;;10.50;10.20;;;6.80;99.90;;;;;;6229604;23;20221;-85
2024/01/23 09:10:17;;;;;;;10.30;10.00;;;6.80;99.90;;;;;;6229618;23;20195;-85
2024/01/23 09:12:44;;;;;;;10.10;9.80;;;6.80;99.90;;;;;;6229182;23;20194;-86
2024/01/23 09:15:14;;;;;;;10.37;10.07;;;6.90;99.90;;;;;;6229212;22;20210;-86
2024/01/23 09:17:41;;;;;;;10.60;10.30;;;6.90;99.90;;;;;;6231979;23;20270;-86
2024/01/23 09:20:10;;;;;;;10.53;10.23;;;6.90;99.90;;;;;;6245984;23;20226;-86
2024/01/23 09:22:43;;;;;;;10.37;10.07;;;7.00;99.90;;;;;;6238789;22;20185;-86
2024/01/23 09:25:11;;;;;;;10.60;10.30;;;7.20;99.90;;;;;;6234971;22;20209;-85
2024/01/23 09:27:38;;;;;;;10.50;10.20;;;7.30;99.90;;;;;;6234026;23;20222;-86
2024/01/23 09:30:08;;;;;;;10.47;10.17;;;7.50;99.90;;;;;;6230708;23;20195;-86
2024/01/23 09:32:37;;;;;;;10.53;10.23;;;7.50;99.90;;;;;;6229625;23;20234;-86
2024/01/23 09:35:06;;;;;;;10.40;10.10;;;7.50;99.90;;;;;;6230345;22;20198;-86
2024/01/23 09:37:33;;;;;;;10.43;10.13;;;7.40;99.90;;;;;;6231264;23;20191;-86
2024/01/23 09:40:01;;;;;;;10.40;10.10;;;7.40;99.90;;;;;;6230372;23;20207;-86
2024/01/23 09:42:30;;;;;;;10.30;10.00;;;7.60;99.90;;;;;;6231397;23;20261;-86
2024/01/23 09:44:58;;;;;;;10.60;10.30;;;7.70;99.90;;;;;;6231334;22;20207;-86
2024/01/23 09:47:27;;;;;;;10.60;10.30;;;7.70;99.90;;;;;;6230593;23;20199;-86
2024/01/23 09:49:56;;;;;;;10.70;10.40;;;7.60;99.90;;;;;;6231442;23;20230;-87
2024/01/23 09:52:23;;;;;;;10.40;10.10;;;7.60;99.90;;;;;;6231395;23;20214;-87
2024/01/23 09:54:51;;;;;;;10.27;9.97;;;7.60;99.90;;;;;;6230608;22;20206;-86
2024/01/23 09:57:18;;;;;;;10.67;10.37;;;7.70;99.90;;;;;;6232517;23;20195;-86
2024/01/23 09:59:48;;;;;;;10.20;9.90;;;7.80;99.90;;;;;;6231035;23;20199;-86
2024/01/23 10:02:16;;;;;;;10.17;9.87;;;7.90;99.90;;;;;;6231282;23;20206;-86
2024/01/23 10:04:46;;;;;;;10.60;10.30;;;8.00;99.90;;;;;;6230735;22;20670;-86
2024/01/23 10:07:16;;;;;;;10.63;10.33;;;7.90;99.90;;;;;;6231524;23;20198;-86
2024/01/23 10:09:49;;;;;;;10.73;10.43;;;7.70;99.90;;;;;;6229557;23;20199;-86
2024/01/23 10:12:19;;;;;;;10.80;10.50;;;7.70;99.90;;;;;;6230626;23;20238;-86
2024/01/23 10:14:46;;;;;;;10.60;10.30;;;7.70;99.90;;;;;;6230453;22;20254;-86
2024/01/23 10:17:14;;;;;;;10.80;10.50;;;7.60;99.90;;;;;;6231853;23;20199;-86
2024/01/23 10:19:41;;;;;;;11.10;10.80;;;7.60;99.90;;;;;;6238723;23;20191;-86
2024/01/23 10:22:09;;;;;;;10.80;10.50;;;7.70;99.90;;;;;;6238528;23;20214;-86
2024/01/23 10:24:38;;;;;;;10.70;10.40;;;7.70;99.90;;;;;;6235178;22;20226;-86
2024/01/23 10:27:08;;;;;;;10.90;10.60;;;7.70;99.90;;;;;;6230890;23;20206;-87
2024/01/23 10:29:36;;;;;;;10.73;10.43;;;8.00;99.90;;;;;;6231282;23;20250;-87
2024/01/23 10:32:07;;;;;;;10.83;10.53;;;8.20;99.90;;;;;;6232888;23;20195;-86
2024/01/23 10:34:35;;;;;;;10.60;10.30;;;8.50;99.90;;;;;;6235144;22;20207;-86
2024/01/23 10:37:02;;;;;;;10.40;10.10;;;8.60;99.90;;;;;;6243410;22;20199;-87
2024/01/23 10:39:30;;;;;;;9.83;9.53;;;8.60;99.90;;;;;;6231099;23;20206;-87
2024/01/23 10:42:00;;;;;;;9.97;9.67;;;8.80;99.90;;;;;;6230826;23;20202;-86
2024/01/23 10:44:30;;;;;;;9.90;9.60;;;8.90;99.90;;;;;;6230041;22;20233;-87
2024/01/23 10:46:58;;;;;;;9.83;9.53;;;8.90;99.90;;;;;;6230665;23;20269;-87
2024/01/23 10:49:25;;;;;;;10.10;9.80;;;8.90;99.90;;;;;;6230499;23;20201;-87
2024/01/23 10:51:56;;;;;;;10.10;9.80;;;8.90;99.90;;;;;;6230150;23;20194;-87
2024/01/23 10:54:30;;;;;;;10.00;9.70;;;8.60;99.90;;;;;;6230306;22;20206;-87
2024/01/23 10:57:02;;;;;;;10.10;9.80;;;8.60;99.90;;;;;;6230894;23;20198;-88
2024/01/23 10:59:32;;;;;;;9.60;9.30;;;8.60;99.90;;;;;;6230580;23;20234;-87
2024/01/23 11:02:04;;;;;;;9.83;9.53;;;8.40;99.90;;;;;;6229906;23;20202;-86
2024/01/23 11:04:31;;;;;;;9.57;9.27;;;8.40;99.90;;;;;;6229997;22;20207;-86
2024/01/23 11:07:04;;;;;;;9.80;9.50;;;8.30;99.90;;;;;;6230830;23;20199;-87
2024/01/23 11:09:39;;;;;;;10.20;9.90;;;8.00;99.90;;;;;;6229944;23;20261;-87
2024/01/23 11:12:29;;;;;;;10.00;9.70;;;8.30;99.90;;;;;;6231003;23;20186;-86
2024/01/23 11:15:03;;;;;;;10.20;9.90;;;8.40;99.90;;;;;;6234254;22;20207;-86
2024/01/23 11:17:33;;;;;;;10.40;10.10;;;8.70;99.90;;;;;;6234299;23;20218;-86
2024/01/23 11:20:08;;;;;;;10.03;9.73;;;9.00;99.90;;;;;;6231693;23;20211;-86
2024/01/23 11:22:36;;;;;;;10.03;9.73;;;9.10;99.90;;;;;;6230528;23;20202;-87
2024/01/23 11:25:05;;;;;;;10.07;9.77;;;9.00;99.90;;;;;;6230981;22;20198;-87
2024/01/23 11:27:38;;;;;;;9.80;9.50;;;8.90;99.90;;;;;;6231756;23;20214;-87
2024/01/23 11:30:11;;;;;;;10.03;9.73;;;8.90;99.90;;;;;;6230459;23;20202;-87
2024/01/23 11:32:38;;;;;;;9.90;9.60;;;8.70;99.90;;;;;;6231486;23;20214;-87
2024/01/23 11:35:11;;;;;;;10.40;10.10;;;8.70;99.90;;;;;;6230927;22;20212;-87
2024/01/23 11:37:56;;;;;;;9.80;9.50;;;8.60;99.90;;;;;;6231229;23;20199;-86
2024/01/23 11:40:33;;;;;;;9.50;9.20;;;8.40;99.90;;;;;;6230726;23;20191;-86
2024/01/23 11:43:05;;;;;;;10.00;9.70;;;8.40;99.90;;;;;;6231593;23;20206;-86
2024/01/23 11:45:36;;;;;;;9.53;9.23;;;8.40;99.90;;;;;;6230691;22;20230;-86
2024/01/23 11:48:05;;;;;;;9.50;9.20;;;8.40;99.90;;;;;;6242011;22;20182;-86
2024/01/23 11:50:35;;;;;;;9.80;9.50;;;8.40;99.90;;;;;;6249711;22;20195;-86
2024/01/23 11:53:04;;;;;;;9.53;9.23;;;8.30;99.90;;;;;;6242260;22;20191;-86
2024/01/23 11:55:31;;;;;;;9.97;9.67;;;8.10;99.90;;;;;;6231771;22;20206;-87
2024/01/23 11:58:01;;;;;;;10.20;9.90;;;7.90;99.90;;;;;;6231091;23;20206;-86
2024/01/23 12:00:29;;;;;;;10.27;9.97;;;7.80;99.90;;;;;;6230326;23;20247;-87
2024/01/23 12:02:57;;;;;;;10.07;9.77;;;7.80;99.90;;;;;;6231075;23;20253;-86
2024/01/23 12:05:25;;;;;;;10.20;9.90;;;7.80;99.90;;;;;;6231430;22;20202;-86
2024/01/23 12:07:52;;;;;;;9.90;9.60;;;7.80;99.90;;;;;;6231559;23;20210;-87
2024/01/23 12:10:20;;;;;;;9.83;9.53;;;7.80;99.90;;;;;;6231039;23;20199;-86
2024/01/23 12:12:53;;;;;;;9.87;9.57;;;7.70;99.90;;;;;;6230222;23;20254;-87
2024/01/23 12:15:22;;;;;;;9.67;9.37;;;7.80;99.90;;;;;;6230505;23;20234;-87
2024/01/23 12:17:50;;;;;;;9.90;9.60;;;7.80;99.90;;;;;;6230884;23;20234;-86
2024/01/23 12:20:18;;;;;;;9.97;9.67;;;7.80;99.90;;;;;;6230276;23;20199;-87
2024/01/23 12:22:46;;;;;;;9.97;9.67;;;7.90;99.90;;;;;;6229767;23;20187;-87
2024/01/23 12:25:15;;;;;;;10.00;9.70;;;7.90;99.90;;;;;;6230357;22;20253;-87
2024/01/23 12:27:44;;;;;;;10.20;9.90;;;8.00;99.90;;;;;;6230804;23;20201;-87
2024/01/23 12:30:14;;;;;;;9.87;9.57;;;7.90;99.90;;;;;;6229790;23;20222;-87
2024/01/23 12:32:48;;;;;;;9.67;9.37;;;7.90;99.90;;;;;;6229819;23;20195;-87
2024/01/23 12:35:15;;;;;;;10.00;9.70;;;7.70;99.90;;;;;;6229709;22;20206;-87
2024/01/23 12:37:43;;;;;;;9.80;9.50;;;7.70;99.90;;;;;;6230544;23;20199;-87
2024/01/23 12:40:14;;;;;;;10.13;9.83;;;7.70;99.90;;;;;;6231049;23;20199;-87
2024/01/23 12:42:46;;;;;;;10.00;9.70;;;7.60;99.90;;;;;;6240176;22;20186;-87
2024/01/23 12:45:16;;;;;;;9.90;9.60;;;7.50;99.90;;;;;;6239767;22;20213;-86
2024/01/23 12:47:47;;;;;;;9.70;9.40;;;7.40;99.90;;;;;;6235509;23;20202;-86